DTMB/MIR METAR and TAF weather

Enter ICAO airport designator
Station Type Date Time Source
DTMB METAR 2020/02/27 14:30 UTC NOAA

DTMB 271430Z 01005KT 9999 FEW033 SCT040 17/06 Q1020


Station Type Date Time Source
DTMB Decoded METAR 2020/02/27 14:30 UTC NOAA

Habib Bourguiba , Tunisia (DTMB) 35-46N 010-45E
Feb 27, 2020 - 09:30 AM EST / 2020.02.27 1430 UTC
Wind: from the N (010 degrees) at 6 MPH (5 KT):0
Visibility: greater than 7 mile(s):0
Sky conditions: partly cloudy
Temperature: 62 F (17 C)
Dew Point: 42 F (6 C)
Relative Humidity: 48%
Pressure (altimeter): 30.12 in. Hg (1020 hPa)
ob: DTMB 271430Z 01005KT 9999 FEW033 SCT040 17/06 Q1020
cycle: 14

Station Type Date Time Source
DTMB TAF 2020/02/27 12:30 UTC NOAA

TAF TAF DTMB 271100Z 2712/2812 32010KT 9999 SCT033
BECMG 2712/2714 06008KT
BECMG 2716/2718 12010KT
BECMG 2722/2724 21010KT
BECMG 2808/2810 28012KT

Example: see airport list